createdAt,value
2017-03-05T20:51:13.161Z,95.89
2017-03-05T20:52:28.511Z,91.23
2017-03-05T20:53:43.189Z,90.47
2017-03-05T20:54:58.560Z,91.19
2017-03-05T20:56:13.675Z,91.75
2017-03-05T20:57:28.388Z,91.75
2017-03-05T20:58:43.353Z,92.13
2017-03-05T20:59:58.842Z,92.51
2017-03-05T21:01:14.373Z,92.9
2017-03-05T21:02:31.501Z,92.8
2017-03-05T21:03:46.467Z,92.42
2017-03-05T21:05:01.742Z,92.56
2017-03-05T21:06:16.265Z,92.47
2017-03-05T21:07:30.775Z,92.66
2017-03-05T21:08:45.815Z,92.28
2017-03-05T21:10:00.889Z,92.47
2017-03-05T21:11:16.073Z,92.66
2017-03-05T21:12:31.378Z,92.47
2017-03-05T21:13:46.555Z,92.66
2017-03-05T21:15:01.172Z,91.94
2017-03-05T21:16:17.895Z,91.99
2017-03-05T21:17:32.876Z,92.56
2017-03-05T21:18:47.039Z,92.85
2017-03-05T21:20:02.273Z,93.13
2017-03-05T21:21:17.139Z,93.32
2017-03-05T21:22:31.157Z,93.51
2017-03-05T21:23:48.361Z,93.51
2017-03-05T21:25:03.794Z,93.8
2017-03-05T21:26:18.491Z,93.89
2017-03-05T21:27:33.713Z,93.51
2017-03-05T21:28:49.133Z,93.41
2017-03-05T21:30:03.530Z,93.89
2017-03-05T21:31:18.607Z,93.51
2017-03-05T21:32:33.207Z,93.8
2017-03-05T21:33:48.022Z,93.89
2017-03-05T21:35:03.148Z,93.7
2017-03-05T21:36:18.412Z,93.6
2017-03-05T21:37:33.705Z,93.23
2017-03-05T21:38:49.319Z,93.7
2017-03-05T21:40:04.925Z,93.6
2017-03-05T21:41:19.517Z,93.89
2017-03-05T21:42:34.743Z,92.75
2017-03-05T21:43:49.483Z,92.56
2017-03-05T21:45:04.100Z,92.75
2017-03-05T21:46:18.412Z,92.56
2017-03-05T21:47:32.503Z,92.47
2017-03-05T21:48:48.585Z,92.75
2017-03-05T21:50:04.146Z,92.75
2017-03-05T21:51:19.829Z,92.47
2017-03-05T21:52:37.946Z,91.99
2017-03-05T21:53:53.160Z,91.89
2017-03-05T21:55:08.344Z,92.09
2017-03-05T21:56:23.381Z,91.99
2017-03-05T21:57:39.263Z,91.89
2017-03-05T21:58:55.548Z,92.37
2017-03-05T22:00:10.418Z,92.09
2017-03-05T22:01:26.011Z,91.99
2017-03-05T22:02:42.353Z,92.09
2017-03-05T22:03:58.433Z,93.04
2017-03-05T22:05:13.722Z,93.23
2017-03-05T22:06:30.930Z,92.47
2017-03-05T22:07:46.310Z,92.47
2017-03-05T22:09:04.205Z,92.37
2017-03-05T22:10:20.141Z,93.23
2017-03-05T22:11:36.105Z,93.23
2017-03-05T22:12:53.265Z,92.47
2017-03-05T22:14:09.270Z,92.18
2017-03-05T22:15:25.623Z,92.66
2017-03-05T22:16:41.957Z,92.75
2017-03-05T22:18:21.038Z,92.56
2017-03-05T22:19:37.003Z,92.56
2017-03-05T22:20:53.187Z,91.89
2017-03-05T22:22:09.344Z,92.18
2017-03-05T22:23:26.219Z,91.61
2017-03-05T22:24:41.317Z,91.8
2017-03-05T22:25:57.352Z,92.09
2017-03-05T22:27:13.108Z,92.56
2017-03-05T22:28:28.172Z,93.8
2017-03-05T22:29:42.585Z,93.89
2017-03-05T22:30:56.779Z,93.6
2017-03-05T22:32:13.433Z,93.89
2017-03-05T22:33:29.321Z,93.99
2017-03-05T22:34:45.066Z,94.08
2017-03-05T22:36:00.134Z,94.27
2017-03-05T22:37:16.013Z,94.46
2017-03-05T22:38:31.485Z,94.93
2017-03-05T22:39:46.615Z,94.98
2017-03-05T22:41:02.165Z,95.03
2017-03-05T22:42:17.996Z,95.7
2017-03-05T22:43:32.626Z,94.84
2017-03-05T22:44:48.248Z,94.74
2017-03-05T22:46:06.364Z,94.74
2017-03-05T22:47:22.563Z,94.74
2017-03-05T22:48:39.092Z,94.27
2017-03-05T22:49:55.125Z,94.08
2017-03-05T22:51:10.356Z,94.74
2017-03-05T22:52:25.914Z,94.27
2017-03-05T22:53:40.606Z,94.93
2017-03-05T22:54:55.442Z,94.65
2017-03-05T22:56:11.241Z,94.37
2017-03-05T22:57:28.583Z,94.65
2017-03-05T22:58:43.717Z,94.46
2017-03-05T22:59:59.890Z,94.74
2017-03-05T23:01:14.058Z,94.56
2017-03-05T23:02:29.493Z,94.93
2017-03-05T23:03:43.423Z,95.12
2017-03-05T23:04:57.893Z,94.98
2017-03-05T23:06:14.384Z,94.74
2017-03-05T23:07:28.512Z,94.46
2017-03-05T23:09:15.245Z,93.7
2017-03-05T23:10:30.737Z,93.99
2017-03-05T23:11:45.504Z,93.89
2017-03-05T23:13:00.242Z,94.23
2017-03-05T23:14:15.217Z,93.89
2017-03-05T23:15:30.246Z,93.8
2017-03-05T23:16:44.738Z,93.41
2017-03-05T23:18:00.129Z,93.7
2017-03-05T23:19:39.819Z,94.27
2017-03-05T23:20:55.682Z,94.27
2017-03-05T23:22:10.974Z,94.32
2017-03-05T23:23:25.532Z,94.46
2017-03-05T23:24:39.784Z,94.18
2017-03-05T23:25:56.217Z,94.37
2017-03-05T23:27:10.278Z,94.56
2017-03-05T23:28:27.277Z,93.7
2017-03-05T23:29:41.899Z,94.18
2017-03-05T23:30:58.291Z,93.89
2017-03-05T23:32:13.965Z,94.56
2017-03-05T23:33:28.409Z,93.89
2017-03-05T23:34:43.133Z,94.37
2017-03-05T23:35:57.757Z,94.32
2017-03-05T23:37:11.961Z,94.37
2017-03-05T23:38:25.962Z,94.27
2017-03-05T23:39:40.569Z,94.13
2017-03-05T23:40:55.057Z,94.37
2017-03-05T23:42:09.729Z,93.94
2017-03-05T23:43:24.499Z,94.46
2017-03-05T23:44:39.146Z,94.32
2017-03-05T23:45:53.771Z,94.27
2017-03-05T23:47:09.232Z,94.56
2017-03-05T23:48:23.994Z,94.42
2017-03-05T23:49:40.212Z,94.42
2017-03-05T23:50:55.751Z,94.42
2017-03-05T23:52:10.450Z,94.74
2017-03-05T23:53:25.274Z,94.56
2017-03-05T23:54:39.845Z,94.51
2017-03-05T23:55:57.223Z,94.56
2017-03-05T23:57:11.728Z,94.89
2017-03-05T23:58:27.303Z,94.84
2017-03-05T23:59:42.512Z,95.12
